createdAt,value
2022-09-28T00:01:18.363Z,15.05
2022-09-28T00:04:11.888Z,14.98
2022-09-28T00:07:02.918Z,14.93
2022-09-28T00:09:53.229Z,14.91
2022-09-28T00:13:22.030Z,14.86
2022-09-28T00:16:05.783Z,14.78
2022-09-28T00:18:39.406Z,14.76
2022-09-28T00:21:14.563Z,14.73
2022-09-28T00:24:05.685Z,14.66
2022-09-28T00:26:39.419Z,14.53
2022-09-28T00:29:27.815Z,14.47
2022-09-28T00:32:03.727Z,14.35
2022-09-28T00:34:39.388Z,14.29
2022-09-28T00:37:13.831Z,14.22
2022-09-28T00:42:52.553Z,14.12
2022-09-28T00:45:35.585Z,14.04
2022-09-28T00:48:09.797Z,13.98
2022-09-28T00:50:44.113Z,13.96
2022-09-28T00:53:21.664Z,13.93
2022-09-28T00:55:59.381Z,13.92
2022-09-28T00:58:38.186Z,13.92
2022-09-28T01:01:12.243Z,13.92
2022-09-28T01:03:46.930Z,13.96
2022-09-28T01:06:22.368Z,13.98
2022-09-28T01:09:03.944Z,14.02
2022-09-28T01:11:39.410Z,14.04
2022-09-28T01:14:18.435Z,14.04
2022-09-28T01:17:02.166Z,14.04
2022-09-28T01:20:04.492Z,14.08
2022-09-28T01:23:25.556Z,14.12
2022-09-28T01:26:12.333Z,14.12
2022-09-28T01:28:54.494Z,14.13
2022-09-28T01:31:35.605Z,14.14
2022-09-28T01:34:16.544Z,14.16
2022-09-28T01:36:57.494Z,14.17
2022-09-28T01:39:36.519Z,14.17
2022-09-28T01:42:19.251Z,14.18
2022-09-28T01:44:56.419Z,14.20
2022-09-28T01:47:35.109Z,14.20
2022-09-28T01:50:13.633Z,14.22
2022-09-28T01:52:56.427Z,14.26
2022-09-28T01:55:36.752Z,14.28
2022-09-28T01:58:17.875Z,14.31
2022-09-28T02:00:59.871Z,14.30
2022-09-28T02:03:42.719Z,14.29
2022-09-28T02:06:20.284Z,14.28
2022-09-28T02:08:57.797Z,14.27
2022-09-28T02:11:39.198Z,14.27
2022-09-28T02:14:15.847Z,14.28
2022-09-28T02:16:52.539Z,14.29
2022-09-28T02:19:33.110Z,14.26
2022-09-28T02:22:23.572Z,14.25
2022-09-28T02:25:05.647Z,14.26
2022-09-28T02:27:43.812Z,14.26
2022-09-28T02:30:18.291Z,14.27
2022-09-28T02:32:55.269Z,14.28
2022-09-28T02:35:29.185Z,14.30
2022-09-28T02:38:03.463Z,14.30
2022-09-28T02:40:39.387Z,14.28
2022-09-28T02:43:23.735Z,14.27
2022-09-28T02:46:08.252Z,14.25
2022-09-28T02:49:20.313Z,14.25
2022-09-28T02:52:14.520Z,14.26
2022-09-28T02:55:14.209Z,14.28
2022-09-28T02:57:57.836Z,14.24
2022-09-28T03:00:35.390Z,14.22
2022-09-28T03:03:18.870Z,14.21
2022-09-28T03:06:01.404Z,14.20
2022-09-28T03:08:43.141Z,14.23
2022-09-28T03:11:22.049Z,14.24
2022-09-28T03:13:57.889Z,14.22
2022-09-28T03:16:36.927Z,14.20
2022-09-28T03:19:11.031Z,14.20
2022-09-28T03:21:44.622Z,14.20
2022-09-28T03:24:17.912Z,14.22
2022-09-28T03:26:51.404Z,14.21
2022-09-28T03:29:25.004Z,14.21
2022-09-28T03:32:01.949Z,14.22
2022-09-28T03:34:37.845Z,14.21
2022-09-28T03:37:10.825Z,14.17
2022-09-28T03:39:46.750Z,14.15
2022-09-28T03:42:19.915Z,14.14
2022-09-28T03:44:57.332Z,14.13
2022-09-28T03:47:30.760Z,14.12
2022-09-28T03:50:04.255Z,14.13
2022-09-28T03:52:40.790Z,14.14
2022-09-28T03:55:15.529Z,14.15
2022-09-28T03:57:56.989Z,14.16
2022-09-28T04:00:30.350Z,14.13
2022-09-28T04:03:04.391Z,14.11
2022-09-28T04:05:38.265Z,14.11
2022-09-28T04:08:11.548Z,14.11
2022-09-28T04:10:46.023Z,14.11
2022-09-28T04:13:19.930Z,14.09
2022-09-28T04:15:58.964Z,14.07
2022-09-28T04:18:39.046Z,14.05
2022-09-28T04:21:38.790Z,14.03
2022-09-28T04:24:20.848Z,13.97
2022-09-28T04:27:14.336Z,13.94
2022-09-28T04:29:48.468Z,13.94
2022-09-28T04:32:23.156Z,13.92
2022-09-28T04:35:00.617Z,13.90
2022-09-28T04:37:34.115Z,13.90
2022-09-28T04:40:12.362Z,13.90
2022-09-28T04:42:45.957Z,13.90
2022-09-28T04:45:20.930Z,13.91
2022-09-28T04:47:54.899Z,13.91
2022-09-28T04:50:36.728Z,13.87
2022-09-28T04:53:20.902Z,13.85
2022-09-28T04:56:02.869Z,13.85
2022-09-28T04:58:37.958Z,13.83
2022-09-28T05:01:13.910Z,13.82
2022-09-28T05:04:10.216Z,13.79
2022-09-28T05:07:09.619Z,13.75
2022-09-28T05:09:43.815Z,13.72
2022-09-28T05:12:21.222Z,13.71
2022-09-28T05:14:54.724Z,13.72
2022-09-28T05:17:28.375Z,13.74
2022-09-28T05:20:12.517Z,13.75
2022-09-28T05:22:46.144Z,13.76
2022-09-28T05:25:20.163Z,13.74
2022-09-28T05:28:09.569Z,13.72
2022-09-28T05:31:03.773Z,13.69
2022-09-28T05:33:57.070Z,13.66
2022-09-28T05:36:30.317Z,13.65
2022-09-28T05:39:04.513Z,13.61
2022-09-28T05:41:38.568Z,13.59
2022-09-28T05:44:23.492Z,13.57
2022-09-28T05:46:58.116Z,13.56
2022-09-28T05:49:41.513Z,13.56
2022-09-28T05:52:15.434Z,13.58
2022-09-28T05:54:48.958Z,13.62
2022-09-28T05:57:22.754Z,13.63
2022-09-28T05:59:56.824Z,13.64
2022-09-28T06:02:30.749Z,13.64
2022-09-28T06:05:05.757Z,13.62
2022-09-28T06:07:49.921Z,13.59
2022-09-28T06:10:23.730Z,13.56
2022-09-28T06:13:00.842Z,13.62
2022-09-28T06:15:37.064Z,13.64
2022-09-28T06:18:12.311Z,13.65
2022-09-28T06:21:06.163Z,13.67
2022-09-28T06:23:45.633Z,13.67
2022-09-28T06:26:21.797Z,13.68
2022-09-28T06:28:55.607Z,13.69
2022-09-28T06:31:30.523Z,13.71
2022-09-28T06:34:03.912Z,13.75
2022-09-28T06:36:37.288Z,13.82
2022-09-28T06:39:11.151Z,13.87
2022-09-28T06:41:44.666Z,13.89
2022-09-28T06:44:21.373Z,13.88
2022-09-28T06:47:13.252Z,13.96
2022-09-28T06:50:12.472Z,14.10
2022-09-28T06:53:18.168Z,14.24
2022-09-28T06:56:03.705Z,14.34
2022-09-28T06:58:37.476Z,14.44
2022-09-28T07:01:12.906Z,14.51
2022-09-28T07:04:02.034Z,14.56
2022-09-28T07:07:11.498Z,14.63
2022-09-28T07:10:03.887Z,14.72
2022-09-28T07:13:18.691Z,14.82
2022-09-28T07:16:12.609Z,14.87
2022-09-28T07:18:46.220Z,14.82
2022-09-28T07:21:29.353Z,14.77
2022-09-28T07:24:07.251Z,14.74
2022-09-28T07:27:05.435Z,14.71
2022-09-28T07:29:42.297Z,14.89
2022-09-28T07:32:28.689Z,15.08
2022-09-28T07:35:25.856Z,15.28
2022-09-28T07:38:05.158Z,15.57
2022-09-28T07:40:57.145Z,15.70
2022-09-28T07:43:31.385Z,15.56
2022-09-28T07:46:09.895Z,15.40
2022-09-28T07:48:46.164Z,15.32
2022-09-28T07:51:21.597Z,15.38
2022-09-28T07:54:08.875Z,15.60
2022-09-28T07:57:08.783Z,15.52
2022-09-28T07:59:45.344Z,15.43
2022-09-28T08:02:48.620Z,15.37
2022-09-28T08:05:32.561Z,15.39
2022-09-28T08:08:06.120Z,15.39
2022-09-28T08:10:44.444Z,15.32
2022-09-28T08:13:28.123Z,15.33
2022-09-28T08:16:07.735Z,15.32
2022-09-28T08:18:55.747Z,15.32
2022-09-28T08:21:47.579Z,15.31
2022-09-28T08:24:24.413Z,15.36
2022-09-28T08:27:01.288Z,15.37
2022-09-28T08:29:37.229Z,15.41
2022-09-28T08:32:39.735Z,15.41
2022-09-28T08:35:48.665Z,15.49
2022-09-28T08:38:36.602Z,15.58
2022-09-28T08:41:40.261Z,15.61
2022-09-28T08:48:09.997Z,15.73
2022-09-28T08:51:07.490Z,15.75
2022-09-28T08:53:57.466Z,15.77
2022-09-28T08:56:41.627Z,15.87
2022-09-28T08:59:19.222Z,15.94
2022-09-28T09:02:03.948Z,15.93
2022-09-28T09:04:39.604Z,15.91
2022-09-28T09:08:02.712Z,15.89
2022-09-28T09:10:51.167Z,15.88
2022-09-28T09:14:05.702Z,15.93
2022-09-28T09:16:51.686Z,16.10
2022-09-28T09:19:36.823Z,16.15
2022-09-28T09:22:24.130Z,16.30
2022-09-28T09:25:09.509Z,16.44
2022-09-28T09:27:59.578Z,16.38
2022-09-28T09:30:40.743Z,16.38
2022-09-28T09:33:54.390Z,16.50
2022-09-28T09:37:01.161Z,16.54
2022-09-28T09:40:07.740Z,16.59
2022-09-28T09:43:45.699Z,16.51
2022-09-28T09:46:40.629Z,16.48
2022-09-28T09:49:40.276Z,16.53
2022-09-28T09:52:21.234Z,16.56
2022-09-28T09:55:01.028Z,16.57
2022-09-28T09:57:46.916Z,16.56
2022-09-28T10:01:01.434Z,16.55
2022-09-28T10:03:56.682Z,16.53
2022-09-28T10:06:35.438Z,16.53
2022-09-28T10:09:12.846Z,16.68
2022-09-28T10:11:50.137Z,16.83
2022-09-28T10:14:26.516Z,16.95
2022-09-28T10:17:09.270Z,16.98
2022-09-28T10:20:01.906Z,16.79
2022-09-28T10:22:58.125Z,16.57
2022-09-28T10:25:31.567Z,16.47
2022-09-28T10:28:07.054Z,16.44
2022-09-28T10:30:44.777Z,16.42
2022-09-28T10:33:32.887Z,16.59
2022-09-28T10:36:11.717Z,16.75
2022-09-28T10:38:51.578Z,16.81
2022-09-28T10:41:50.446Z,16.78
2022-09-28T10:44:27.704Z,16.72
2022-09-28T10:47:08.433Z,16.65
2022-09-28T10:49:47.361Z,16.58
2022-09-28T10:52:37.410Z,16.51
2022-09-28T10:55:23.002Z,16.44
2022-09-28T10:57:56.882Z,16.35
2022-09-28T11:00:39.561Z,16.27
2022-09-28T11:03:27.159Z,16.25
2022-09-28T11:06:07.440Z,16.26
2022-09-28T11:08:44.697Z,16.54
2022-09-28T11:11:24.876Z,16.90
2022-09-28T11:14:05.296Z,17.22
2022-09-28T11:16:41.314Z,17.67
2022-09-28T11:19:31.088Z,18.56
2022-09-28T11:22:20.938Z,18.77
2022-09-28T11:25:14.282Z,18.57
2022-09-28T11:28:00.604Z,18.31
2022-09-28T11:30:40.996Z,18.07
2022-09-28T11:33:38.095Z,17.89
2022-09-28T11:36:47.800Z,17.75
2022-09-28T11:39:31.807Z,17.58
2022-09-28T11:42:20.183Z,17.37
2022-09-28T11:45:00.119Z,17.14
2022-09-28T11:47:45.798Z,16.96
2022-09-28T11:50:26.558Z,16.80
2022-09-28T11:53:15.311Z,17.14
2022-09-28T11:55:53.871Z,17.72
2022-09-28T11:58:30.797Z,17.64
2022-09-28T12:01:15.435Z,17.44
2022-09-28T12:04:22.194Z,17.32
2022-09-28T12:07:01.081Z,17.28
2022-09-28T12:09:41.958Z,17.14
2022-09-28T12:12:26.316Z,17.04
2022-09-28T12:15:18.836Z,16.92
2022-09-28T12:17:55.976Z,16.94
2022-09-28T12:20:32.192Z,16.95
2022-09-28T12:23:09.722Z,16.98
2022-09-28T12:25:48.977Z,16.99
2022-09-28T12:28:32.083Z,17.02
2022-09-28T12:31:16.670Z,17.08
2022-09-28T12:33:53.069Z,17.20
2022-09-28T12:36:42.059Z,17.35
2022-09-28T12:39:46.739Z,17.39
2022-09-28T12:42:39.600Z,17.34
2022-09-28T12:45:30.984Z,17.28
2022-09-28T12:48:28.326Z,17.21
2022-09-28T12:51:11.176Z,17.14
2022-09-28T12:54:01.456Z,17.08
2022-09-28T12:56:43.071Z,16.98
2022-09-28T12:59:26.859Z,16.89
2022-09-28T13:02:38.639Z,16.80
2022-09-28T13:05:38.448Z,16.68
2022-09-28T13:08:19.408Z,16.59
2022-09-28T13:11:07.860Z,16.53
2022-09-28T13:13:52.256Z,16.46
2022-09-28T13:16:35.063Z,16.44
2022-09-28T13:19:17.171Z,16.41
2022-09-28T13:21:59.299Z,16.40
2022-09-28T13:24:44.651Z,16.51
2022-09-28T13:27:25.001Z,16.94
2022-09-28T13:30:02.708Z,17.50
2022-09-28T13:32:39.165Z,18.25
2022-09-28T13:35:19.829Z,18.43
2022-09-28T13:38:44.933Z,18.32
2022-09-28T13:41:21.694Z,18.52
2022-09-28T13:44:30.880Z,18.64
2022-09-28T13:47:21.102Z,18.52
2022-09-28T13:50:05.597Z,18.43
2022-09-28T13:52:52.470Z,18.35
2022-09-28T13:55:35.185Z,18.23
2022-09-28T13:58:16.607Z,18.07
2022-09-28T14:00:55.427Z,17.93
2022-09-28T14:03:44.600Z,17.74
2022-09-28T14:06:29.155Z,17.50
2022-09-28T14:09:25.394Z,17.22
2022-09-28T14:12:01.741Z,16.98
2022-09-28T14:14:49.696Z,16.93
2022-09-28T14:17:53.484Z,16.81
2022-09-28T14:20:31.713Z,16.66
2022-09-28T14:23:40.400Z,16.55
2022-09-28T14:26:43.563Z,16.46
2022-09-28T14:29:31.780Z,16.41
2022-09-28T14:32:37.419Z,16.33
2022-09-28T14:35:21.619Z,16.27
2022-09-28T14:38:23.247Z,16.23
2022-09-28T14:41:13.110Z,16.21
2022-09-28T14:44:09.703Z,16.22
2022-09-28T14:46:45.957Z,16.18
2022-09-28T14:50:01.595Z,16.14
2022-09-28T14:52:46.685Z,16.08
2022-09-28T14:55:25.875Z,16.09
2022-09-28T14:58:01.336Z,16.09
2022-09-28T15:00:37.508Z,16.07
2022-09-28T15:03:14.774Z,15.99
2022-09-28T15:05:49.922Z,15.96
2022-09-28T15:08:24.757Z,15.94
2022-09-28T15:11:02.237Z,15.93
2022-09-28T15:13:35.946Z,15.92
2022-09-28T15:16:12.838Z,15.94
2022-09-28T15:19:16.240Z,15.90
2022-09-28T15:21:51.466Z,15.84
2022-09-28T15:24:35.930Z,15.77
2022-09-28T15:27:19.423Z,15.72
2022-09-28T15:30:03.993Z,15.66
2022-09-28T15:32:37.822Z,15.64
2022-09-28T15:35:22.179Z,15.65
2022-09-28T15:37:56.749Z,15.66
2022-09-28T15:40:35.255Z,15.62
2022-09-28T15:43:27.170Z,15.62
2022-09-28T15:46:07.392Z,15.61
2022-09-28T15:48:52.464Z,15.58
2022-09-28T15:51:28.764Z,15.60
2022-09-28T15:54:06.149Z,15.60
2022-09-28T15:56:55.589Z,15.60
2022-09-28T15:59:33.378Z,15.60
2022-09-28T16:02:16.885Z,15.59
2022-09-28T16:04:54.507Z,15.58
2022-09-28T16:07:35.011Z,15.56
2022-09-28T16:10:35.466Z,15.55
2022-09-28T16:13:24.995Z,15.54
2022-09-28T16:16:02.831Z,15.53
2022-09-28T16:18:41.640Z,15.51
2022-09-28T16:21:53.655Z,15.52
2022-09-28T16:24:31.133Z,15.46
2022-09-28T16:27:07.297Z,15.41
2022-09-28T16:29:45.423Z,15.40
2022-09-28T16:32:42.029Z,15.40
2022-09-28T16:35:30.703Z,15.38
2022-09-28T16:38:14.121Z,15.41
2022-09-28T16:40:50.669Z,15.42
2022-09-28T16:43:27.319Z,15.44
2022-09-28T16:46:07.259Z,15.42
2022-09-28T16:48:49.026Z,15.39
2022-09-28T16:51:24.675Z,15.38
2022-09-28T16:54:19.171Z,15.38
2022-09-28T16:56:52.806Z,15.39
2022-09-28T16:59:26.034Z,15.38
2022-09-28T17:01:59.966Z,15.38
2022-09-28T17:04:33.500Z,15.39
2022-09-28T17:07:07.005Z,15.41
2022-09-28T17:09:40.280Z,15.44
2022-09-28T17:12:21.484Z,15.45
2022-09-28T17:14:55.219Z,15.43
2022-09-28T17:17:31.995Z,15.42
2022-09-28T17:20:20.762Z,15.39
2022-09-28T17:22:55.065Z,15.33
2022-09-28T17:25:29.659Z,15.34
2022-09-28T17:28:05.087Z,15.34
2022-09-28T17:30:39.583Z,15.34
2022-09-28T17:33:13.742Z,15.32
2022-09-28T17:35:48.703Z,15.32
2022-09-28T17:38:23.516Z,15.29
2022-09-28T17:40:58.189Z,15.27
2022-09-28T17:43:32.146Z,15.23
2022-09-28T17:46:11.257Z,15.22
2022-09-28T17:48:47.378Z,15.20
2022-09-28T17:51:20.976Z,15.16
2022-09-28T17:53:56.670Z,15.12
2022-09-28T17:56:32.689Z,15.04
2022-09-28T17:59:08.076Z,14.96
2022-09-28T18:01:42.263Z,14.93
2022-09-28T18:04:39.746Z,14.94
2022-09-28T18:07:10.820Z,14.95
2022-09-28T18:09:44.465Z,14.94
2022-09-28T18:12:18.504Z,14.94
2022-09-28T18:14:52.153Z,14.94
2022-09-28T18:17:29.078Z,14.93
2022-09-28T18:20:02.537Z,14.90
2022-09-28T18:22:36.593Z,14.87
2022-09-28T18:25:11.657Z,14.83
2022-09-28T18:27:45.791Z,14.81
2022-09-28T18:30:19.934Z,14.79
2022-09-28T18:32:54.434Z,14.73
2022-09-28T18:35:28.761Z,14.67
2022-09-28T18:38:02.541Z,14.63
2022-09-28T18:40:37.179Z,14.58
2022-09-28T18:43:11.150Z,14.49
2022-09-28T18:45:45.318Z,14.43
2022-09-28T18:48:19.144Z,14.37
2022-09-28T18:50:53.143Z,14.31
2022-09-28T18:53:26.947Z,14.26
2022-09-28T18:56:07.251Z,14.16
2022-09-28T18:58:42.716Z,14.06
2022-09-28T19:01:30.070Z,13.84
2022-09-28T19:04:05.729Z,13.70
2022-09-28T19:06:45.106Z,13.55
2022-09-28T19:09:19.866Z,13.42
2022-09-28T19:11:53.926Z,13.32
2022-09-28T19:14:28.018Z,13.27
2022-09-28T19:17:01.570Z,13.24
2022-09-28T19:19:36.111Z,13.24
2022-09-28T19:22:10.185Z,13.29
2022-09-28T19:24:44.223Z,13.35
2022-09-28T19:27:18.269Z,13.35
2022-09-28T19:29:51.947Z,13.34
2022-09-28T19:32:25.806Z,13.30
2022-09-28T19:35:04.095Z,13.27
2022-09-28T19:37:39.659Z,13.30
2022-09-28T19:40:14.029Z,13.37
2022-09-28T19:42:47.325Z,13.43
2022-09-28T19:45:21.518Z,13.50
2022-09-28T19:47:59.286Z,13.56
2022-09-28T19:50:33.319Z,13.58
2022-09-28T19:53:07.562Z,13.59
2022-09-28T19:55:41.169Z,13.60
2022-09-28T19:58:14.453Z,13.62
2022-09-28T20:00:48.041Z,13.62
2022-09-28T20:03:21.392Z,13.63
2022-09-28T20:06:00.140Z,13.64
2022-09-28T20:08:33.636Z,13.63
2022-09-28T20:11:06.903Z,13.61
2022-09-28T20:13:40.273Z,13.59
2022-09-28T20:16:15.895Z,13.58
2022-09-28T20:18:51.771Z,13.56
2022-09-28T20:21:26.922Z,13.54
2022-09-28T20:24:00.086Z,13.56
2022-09-28T20:26:38.071Z,13.55
2022-09-28T20:29:12.296Z,13.55
2022-09-28T20:31:46.032Z,13.52
2022-09-28T20:34:19.498Z,13.49
2022-09-28T20:36:53.099Z,13.47
2022-09-28T20:39:29.641Z,13.43
2022-09-28T20:42:03.150Z,13.38
2022-09-28T20:44:36.623Z,13.36
2022-09-28T20:47:10.241Z,13.34
2022-09-28T20:49:44.695Z,13.32
2022-09-28T20:52:21.356Z,13.31
2022-09-28T20:54:54.962Z,13.30
2022-09-28T20:57:28.818Z,13.28
2022-09-28T21:00:02.662Z,13.29
2022-09-28T21:02:36.705Z,13.28
2022-09-28T21:05:11.893Z,13.30
2022-09-28T21:07:45.134Z,13.32
2022-09-28T21:10:18.815Z,13.33
2022-09-28T21:12:53.444Z,13.33
2022-09-28T21:15:30.184Z,13.33
2022-09-28T21:18:03.557Z,13.34
2022-09-28T21:20:36.825Z,13.37
2022-09-28T21:23:10.131Z,13.40
2022-09-28T21:25:45.925Z,13.41
2022-09-28T21:28:19.701Z,13.40
2022-09-28T21:30:54.901Z,13.38
2022-09-28T21:33:28.764Z,13.37
2022-09-28T21:36:06.934Z,13.33
2022-09-28T21:38:40.100Z,13.32
2022-09-28T21:41:14.050Z,13.31
2022-09-28T21:43:47.792Z,13.31
2022-09-28T21:46:21.378Z,13.31
2022-09-28T21:48:56.280Z,13.28
2022-09-28T21:51:30.014Z,13.24
2022-09-28T21:54:06.918Z,13.19
2022-09-28T21:56:40.893Z,13.16
2022-09-28T21:59:14.175Z,13.13
2022-09-28T22:01:48.458Z,13.12
2022-09-28T22:04:21.763Z,13.10
2022-09-28T22:07:05.466Z,13.08
2022-09-28T22:09:38.914Z,13.06
2022-09-28T22:12:12.916Z,13.04
2022-09-28T22:14:46.543Z,13.01
2022-09-28T22:17:19.995Z,12.95
2022-09-28T22:19:53.532Z,12.87
2022-09-28T22:22:29.317Z,12.80
2022-09-28T22:25:02.768Z,12.74
2022-09-28T22:27:46.334Z,12.71
2022-09-28T22:30:19.887Z,12.68
2022-09-28T22:32:53.561Z,12.64
2022-09-28T22:35:29.649Z,12.61
2022-09-28T22:38:04.928Z,12.57
2022-09-28T22:40:38.812Z,12.55
2022-09-28T22:43:12.514Z,12.49
2022-09-28T22:46:09.719Z,12.49
2022-09-28T22:48:43.917Z,12.50
2022-09-28T22:51:20.109Z,12.53
2022-09-28T22:53:53.499Z,12.54
2022-09-28T22:56:26.994Z,12.51
2022-09-28T22:59:00.684Z,12.47
2022-09-28T23:01:53.045Z,12.42
2022-09-28T23:04:29.609Z,12.39
2022-09-28T23:07:03.137Z,12.34
2022-09-28T23:09:37.300Z,12.32
2022-09-28T23:12:10.843Z,12.31
2022-09-28T23:14:43.980Z,12.28
2022-09-28T23:17:17.177Z,12.26
2022-09-28T23:19:53.014Z,12.28
2022-09-28T23:22:26.596Z,12.27
2022-09-28T23:24:59.771Z,12.26
2022-09-28T23:27:33.301Z,12.15
2022-09-28T23:30:07.735Z,12.06
2022-09-28T23:32:41.038Z,12.01
2022-09-28T23:35:14.898Z,11.87
2022-09-28T23:37:53.289Z,11.80
2022-09-28T23:40:26.931Z,11.83
2022-09-28T23:43:01.147Z,11.83
2022-09-28T23:45:34.503Z,11.83
2022-09-28T23:48:12.230Z,11.84
2022-09-28T23:50:46.713Z,11.91
2022-09-28T23:53:23.498Z,11.87
2022-09-28T23:55:58.249Z,11.85
2022-09-28T23:58:31.946Z,11.78
